Terminal Aerodrome Forecast
Issued by NWS Lake Charles, LA

Home | Current Version | Previous Version | Text Only | Print | Product List | Glossary On
Versions: 1 2 3 4 5 6 7 8 9 10 11 12 13
861
FTUS44 KLCH 101120
TAFLCH
TAF
KLCH 101120Z 1012/1112 36005KT P6SM SKC
     FM101600 04007KT P6SM SKC
     FM101900 18007KT P6SM SKC=

USA.gov is the U.S. government's official web portal to all federal, state and local government web resources and services.